Time;durP1;ratioP1;P1;durP2;ratioP2;P2;SDS_P1;SDS_P2;PMS_P1;PMS_P2;Temp;Humidity;BMP_temperature;BMP_pressure;BME280_temperature;BME280_humidity;BME280_pressure;Samples;Min_cycle;Max_cycle;Signal;HPM_P1;HPM_P2
2022/07/20 00:00:50;;;;;;;13.20;5.10;;;;;;;27.47;33.59;101118.91;5033751;28;20052;-76
2022/07/20 00:03:16;;;;;;;16.85;5.07;;;;;;;27.48;33.53;101113.09;5033802;28;20025;-76
2022/07/20 00:05:48;;;;;;;14.68;5.25;;;;;;;27.50;33.89;101108.09;5034833;28;20036;-77
2022/07/20 00:08:13;;;;;;;12.50;5.28;;;;;;;27.52;33.70;101110.59;5034938;28;20029;-77
2022/07/20 00:13:23;;;;;;;18.80;5.15;;;;;;;27.48;34.18;101092.91;5036317;28;20266;-76
2022/07/20 00:15:49;;;;;;;12.55;4.90;;;;;;;27.44;34.80;101097.38;5033974;28;20297;-77
2022/07/20 00:18:14;;;;;;;10.20;4.97;;;;;;;27.36;34.65;101096.88;5033349;28;20087;-77
2022/07/20 00:20:40;;;;;;;18.02;4.85;;;;;;;27.25;34.34;101095.31;5035788;28;20022;-77
2022/07/20 00:23:05;;;;;;;12.80;5.13;;;;;;;27.22;34.71;101082.06;5035664;28;20033;-76
2022/07/20 00:25:31;;;;;;;10.02;5.03;;;;;;;27.18;34.82;101080.19;5034059;28;20061;-77
2022/07/20 00:27:57;;;;;;;11.35;5.03;;;;;;;27.07;35.54;101077.44;5036414;28;20028;-76
2022/07/20 00:30:23;;;;;;;17.60;5.07;;;;;;;26.96;35.68;101083.31;5033275;28;20026;-76
2022/07/20 00:32:49;;;;;;;15.00;5.45;;;;;;;26.83;37.13;101082.00;5036760;28;20068;-77
2022/07/20 00:35:15;;;;;;;14.07;5.38;;;;;;;26.72;37.68;101092.28;5036132;28;20049;-76
2022/07/20 00:37:42;;;;;;;14.20;5.00;;;;;;;26.54;37.17;101087.41;5034250;28;20017;-76
2022/07/20 00:40:09;;;;;;;15.13;5.00;;;;;;;26.44;37.78;101085.50;5033057;28;20028;-76
2022/07/20 00:42:38;;;;;;;15.80;5.43;;;;;;;26.42;37.30;101093.25;5034501;28;20344;-76
2022/07/20 00:45:05;;;;;;;13.40;5.00;;;;;;;26.39;37.13;101083.59;5016073;28;20017;-76
2022/07/20 00:47:31;;;;;;;10.02;5.40;;;;;;;26.38;37.16;101092.97;5032314;28;20041;-77
2022/07/20 00:49:56;;;;;;;14.70;4.78;;;;;;;26.39;37.19;101083.59;5016206;28;20104;-76
2022/07/20 00:52:22;;;;;;;16.35;5.32;;;;;;;26.38;37.20;101098.47;5033078;28;20462;-77
2022/07/20 00:54:48;;;;;;;18.25;5.30;;;;;;;26.38;36.88;101090.19;5032122;28;20099;-76
2022/07/20 00:57:15;;;;;;;10.77;5.40;;;;;;;26.37;37.32;101090.50;5034129;28;20105;-76
2022/07/20 00:59:40;;;;;;;11.60;4.70;;;;;;;26.35;38.22;101095.47;5032134;28;20022;-76
2022/07/20 01:02:06;;;;;;;14.25;5.03;;;;;;;26.32;37.77;101094.09;5016219;28;20388;-77
2022/07/20 01:04:31;;;;;;;14.43;5.18;;;;;;;26.36;36.42;101086.91;5033681;28;20508;-77
2022/07/20 01:06:56;;;;;;;16.05;5.07;;;;;;;26.36;36.96;101099.91;5034073;28;20104;-77
2022/07/20 01:09:22;;;;;;;17.52;5.20;;;;;;;26.37;36.95;101094.06;5033154;28;20116;-77
2022/07/20 01:11:48;;;;;;;17.52;5.03;;;;;;;26.42;36.95;101098.75;5033120;28;20498;-77
2022/07/20 01:14:13;;;;;;;21.02;5.30;;;;;;;26.50;36.39;101112.78;5031701;28;20485;-76
2022/07/20 01:16:39;;;;;;;15.70;5.25;;;;;;;26.52;36.66;101107.03;5031618;28;20068;-76
2022/07/20 01:19:05;;;;;;;17.17;5.32;;;;;;;26.51;37.60;101121.88;5032731;28;20029;-77
2022/07/20 01:21:31;;;;;;;16.67;6.10;;;;;;;26.46;38.31;101120.00;5033163;28;20112;-76
2022/07/20 01:23:56;;;;;;;16.85;6.00;;;;;;;26.39;38.94;101126.94;5032985;28;20549;-76
2022/07/20 01:26:22;;;;;;;16.73;6.43;;;;;;;26.25;40.97;101123.91;5032933;28;20028;-77
2022/07/20 01:28:47;;;;;;;20.95;7.53;;;;;;;26.01;43.63;101149.38;5032252;28;20091;-77
2022/07/20 01:31:13;;;;;;;30.05;9.95;;;;;;;25.81;46.41;101143.84;5032575;28;20025;-77
2022/07/20 01:33:38;;;;;;;30.08;12.43;;;;;;;25.62;49.25;101151.84;5033020;28;20029;-76
2022/07/20 01:36:04;;;;;;;28.98;12.38;;;;;;;25.57;50.76;101155.41;5031527;28;20068;-76
2022/07/20 01:38:29;;;;;;;36.05;13.18;;;;;;;25.47;51.88;101152.66;5032836;28;20029;-77
2022/07/20 01:40:54;;;;;;;33.15;13.15;;;;;;;25.44;52.55;101157.88;5031768;28;20056;-76
2022/07/20 01:43:20;;;;;;;39.00;16.10;;;;;;;25.11;55.08;101152.53;5031580;28;20026;-76
2022/07/20 01:45:45;;;;;;;43.60;14.30;;;;;;;24.97;55.96;101156.94;5032654;28;20033;-76
2022/07/20 01:48:11;;;;;;;40.20;15.30;;;;;;;24.90;56.36;101153.59;5032249;28;20031;-77
2022/07/20 01:50:37;;;;;;;58.10;19.50;;;;;;;24.73;57.87;101157.38;5032151;28;20112;-76
2022/07/20 01:53:02;;;;;;;44.28;17.33;;;;;;;24.73;58.21;101162.91;5031260;28;20029;-77
2022/07/20 01:55:28;;;;;;;44.83;19.70;;;;;;;24.44;60.04;101159.72;5033055;28;20124;-75
2022/07/20 01:57:53;;;;;;;48.40;20.92;;;;;;;24.36;61.10;101162.97;5034467;28;20033;-77
2022/07/20 02:00:19;;;;;;;60.15;23.35;;;;;;;24.25;62.61;101161.22;5036536;28;20057;-75
2022/07/20 02:02:44;;;;;;;46.80;22.55;;;;;;;24.18;63.63;101153.22;5035891;28;20572;-76
2022/07/20 02:05:10;;;;;;;58.47;23.77;;;;;;;24.07;63.97;101162.50;5030473;28;20029;-76
2022/07/20 02:07:37;;;;;;;50.70;23.25;;;;;;;24.01;64.60;101156.16;5032145;28;20026;-75
2022/07/20 02:10:04;;;;;;;54.28;23.85;;;;;;;23.99;64.91;101160.25;5030792;28;20025;-76
2022/07/20 02:12:30;;;;;;;42.35;22.52;;;;;;;23.97;65.00;101156.94;5032143;28;20033;-75
2022/07/20 02:14:55;;;;;;;52.80;23.75;;;;;;;23.90;65.88;101175.56;5030677;28;20104;-75
2022/07/20 02:17:20;;;;;;;57.50;24.08;;;;;;;23.86;65.80;101154.09;5030271;28;20025;-77
2022/07/20 02:19:46;;;;;;;48.95;23.48;;;;;;;23.88;65.79;101157.44;5031995;28;20029;-76
2022/07/20 02:22:11;;;;;;;53.03;24.60;;;;;;;23.82;65.95;101155.72;5031805;28;20469;-77
2022/07/20 02:24:36;;;;;;;49.03;23.75;;;;;;;23.81;65.97;101156.81;5031918;28;20021;-78
2022/07/20 02:27:02;;;;;;;51.88;24.45;;;;;;;23.74;66.30;101161.69;5031679;28;20024;-77
2022/07/20 02:29:27;;;;;;;56.17;24.45;;;;;;;23.78;66.06;101156.53;5031839;28;20025;-76
2022/07/20 02:31:52;;;;;;;49.38;23.83;;;;;;;23.77;66.26;101154.84;5031551;28;20564;-77
2022/07/20 02:34:18;;;;;;;41.42;23.40;;;;;;;23.76;66.21;101156.78;5031580;28;20124;-77
2022/07/20 02:36:43;;;;;;;47.22;23.35;;;;;;;23.78;66.02;101153.78;5030234;28;20032;-76
2022/07/20 02:39:08;;;;;;;51.03;24.98;;;;;;;23.74;66.13;101164.44;5031923;28;20037;-76
2022/07/20 02:41:34;;;;;;;56.70;24.00;;;;;;;23.78;66.18;101156.53;5031971;28;20133;-78
2022/07/20 02:44:00;;;;;;;44.58;23.13;;;;;;;23.76;65.82;101159.50;5033630;28;20029;-76
2022/07/20 02:46:25;;;;;;;45.13;22.85;;;;;;;23.74;65.92;101164.44;5033953;28;20485;-77
2022/07/20 02:48:51;;;;;;;44.90;22.90;;;;;;;23.76;65.94;101176.00;5032797;28;20034;-76
2022/07/20 02:51:16;;;;;;;44.35;23.52;;;;;;;23.73;65.99;101175.72;5032099;28;20029;-76
2022/07/20 02:53:41;;;;;;;47.20;22.77;;;;;;;23.63;66.42;101171.75;5031438;28;20435;-76
2022/07/20 02:56:07;;;;;;;53.75;23.75;;;;;;;23.62;66.55;101174.75;5030425;28;20116;-76
2022/07/20 02:58:32;;;;;;;46.50;23.90;;;;;;;23.65;66.15;101171.50;5031820;28;20060;-75
2022/07/20 03:00:58;;;;;;;47.90;23.08;;;;;;;23.68;66.33;101165.47;5030360;28;20017;-77
2022/07/20 03:03:23;;;;;;;47.60;23.67;;;;;;;23.72;66.15;101168.53;5029982;28;20081;-76
2022/07/20 03:05:48;;;;;;;48.47;24.75;;;;;;;23.71;66.08;101181.44;5029917;28;20032;-76
2022/07/20 03:08:14;;;;;;;46.08;24.10;;;;;;;23.65;66.45;101175.06;5030802;28;20037;-76
2022/07/20 03:10:39;;;;;;;45.90;25.13;;;;;;;23.64;66.18;101184.41;5029819;28;20026;-75
2022/07/20 03:13:05;;;;;;;54.70;25.88;;;;;;;23.62;66.27;101185.75;5031459;28;20029;-76
2022/07/20 03:15:30;;;;;;;53.35;25.60;;;;;;;23.58;66.60;101185.44;5031019;28;20484;-77
2022/07/20 03:17:56;;;;;;;62.95;26.50;;;;;;;23.50;67.14;101176.84;5013920;28;20025;-76
2022/07/20 03:20:24;;;;;;;56.70;27.20;;;;;;;23.47;66.90;101178.19;5030111;28;20024;-76
2022/07/20 03:22:50;;;;;;;50.63;26.15;;;;;;;23.42;66.89;101187.19;5031371;28;20037;-75
2022/07/20 03:25:16;;;;;;;51.50;26.40;;;;;;;23.42;66.92;101176.22;5030194;28;20033;-77
2022/07/20 03:27:41;;;;;;;54.47;26.92;;;;;;;23.37;66.66;101189.88;5031827;28;20029;-75
2022/07/20 03:30:07;;;;;;;46.80;26.00;;;;;;;23.41;66.62;101196.53;5034347;28;20029;-77
2022/07/20 03:32:33;;;;;;;47.63;26.42;;;;;;;23.41;66.31;101199.28;5031425;28;20025;-75
2022/07/20 03:34:58;;;;;;;56.17;28.52;;;;;;;23.45;65.97;101196.84;5030791;28;20416;-75
2022/07/20 03:37:24;;;;;;;57.45;27.92;;;;;;;23.47;65.74;101215.81;5031677;28;20113;-76
2022/07/20 03:39:49;;;;;;;51.63;26.92;;;;;;;23.42;65.56;101217.41;5031475;28;20028;-77
2022/07/20 03:42:15;;;;;;;51.92;27.27;;;;;;;23.44;65.60;101214.41;5030243;28;20021;-77
2022/07/20 03:44:40;;;;;;;47.92;27.77;;;;;;;23.48;65.27;101220.22;5030913;28;20028;-76
2022/07/20 03:47:05;;;;;;;52.58;27.65;;;;;;;23.52;65.09;101222.19;5031401;28;20026;-77
2022/07/20 03:49:31;;;;;;;46.47;26.90;;;;;;;23.51;64.75;101222.44;5029656;28;20470;-76
2022/07/20 03:51:56;;;;;;;45.60;27.58;;;;;;;23.53;64.73;101220.28;5031069;28;20396;-76
2022/07/20 03:54:21;;;;;;;41.97;25.75;;;;;;;23.52;64.68;101226.88;5030662;28;20026;-76
2022/07/20 03:56:47;;;;;;;47.05;26.77;;;;;;;23.56;64.33;101230.72;5031112;28;20112;-75
2022/07/20 03:59:12;;;;;;;47.22;25.85;;;;;;;23.56;64.49;101226.06;5030571;28;20026;-76
2022/07/20 04:01:38;;;;;;;51.22;27.10;;;;;;;23.61;64.59;101233.53;5030785;28;20477;-76
2022/07/20 04:04:03;;;;;;;54.83;27.52;;;;;;;23.66;63.88;101236.34;5029489;28;20021;-76
2022/07/20 04:06:29;;;;;;;46.67;25.33;;;;;;;23.72;63.42;101229.00;5031538;28;20456;-77
2022/07/20 04:08:55;;;;;;;48.05;26.45;;;;;;;23.77;62.95;101227.13;5031469;28;20026;-76
2022/07/20 04:11:20;;;;;;;50.97;26.48;;;;;;;23.82;62.48;101243.66;5030241;28;20041;-77
2022/07/20 04:13:45;;;;;;;46.22;25.23;;;;;;;23.82;61.91;101242.84;5031091;28;20112;-77
2022/07/20 04:16:11;;;;;;;45.15;24.17;;;;;;;23.79;61.61;101246.13;5031946;28;20030;-76
2022/07/20 04:18:36;;;;;;;44.95;23.85;;;;;;;23.82;61.82;101248.34;5031640;28;20033;-76
2022/07/20 04:21:02;;;;;;;48.00;25.10;;;;;;;23.88;61.38;101245.38;5030966;28;20033;-76
2022/07/20 04:23:27;;;;;;;42.58;23.80;;;;;;;23.87;61.37;101243.72;5030991;28;20029;-77
2022/07/20 04:25:52;;;;;;;45.90;24.10;;;;;;;23.87;61.64;101254.72;5030794;28;20048;-77
2022/07/20 04:28:18;;;;;;;44.97;23.90;;;;;;;23.91;61.84;101249.53;5035251;28;20064;-77
2022/07/20 04:30:44;;;;;;;38.22;24.48;;;;;;;23.97;61.56;101259.47;5035972;28;20029;-76
2022/07/20 04:33:09;;;;;;;43.85;23.48;;;;;;;23.98;61.19;101261.13;5034570;28;20105;-77
2022/07/20 04:35:35;;;;;;;47.22;23.20;;;;;;;23.94;61.78;101275.66;5036554;28;20128;-75
2022/07/20 04:38:01;;;;;;;41.67;22.67;;;;;;;23.96;61.38;101268.81;5036266;28;20041;-77
2022/07/20 04:40:26;;;;;;;39.13;21.13;;;;;;;23.84;61.23;101277.22;5036347;28;20025;-77
2022/07/20 04:42:52;;;;;;;41.53;20.63;;;;;;;23.85;61.72;101284.38;5035157;28;20060;-76
2022/07/20 04:45:17;;;;;;;36.10;18.88;;;;;;;23.73;61.08;101280.97;5034350;28;20044;-77
2022/07/20 04:47:43;;;;;;;33.85;17.95;;;;;;;23.70;61.06;101294.34;5035772;28;20040;-75
2022/07/20 04:50:08;;;;;;;36.28;18.27;;;;;;;23.70;60.63;101295.19;5037401;28;20178;-77
2022/07/20 04:52:34;;;;;;;41.08;17.67;;;;;;;23.60;60.59;101289.59;5037376;28;20018;-77
2022/07/20 04:54:59;;;;;;;33.58;16.50;;;;;;;23.62;60.34;101288.25;5039204;28;20056;-76
2022/07/20 04:57:25;;;;;;;29.90;16.42;;;;;;;23.66;59.91;101283.06;5035302;28;20091;-76
2022/07/20 04:59:50;;;;;;;32.25;16.02;;;;;;;23.68;59.40;101286.38;5034356;28;20540;-76
2022/07/20 05:02:16;;;;;;;36.63;15.48;;;;;;;23.61;58.28;101288.50;5034372;28;20095;-77
2022/07/20 05:04:41;;;;;;;34.40;15.80;;;;;;;23.69;58.71;101288.03;5033921;28;20052;-76
2022/07/20 05:07:06;;;;;;;29.77;14.82;;;;;;;23.67;58.49;101301.19;5034087;28;20168;-76
2022/07/20 05:09:32;;;;;;;32.45;14.55;;;;;;;23.65;58.47;101286.91;5033918;28;20162;-76
2022/07/20 05:11:57;;;;;;;31.23;14.45;;;;;;;23.55;58.31;101300.53;5033899;28;20067;-77
2022/07/20 05:14:23;;;;;;;32.47;15.13;;;;;;;23.57;58.39;101303.84;5033549;28;20037;-77
2022/07/20 05:16:48;;;;;;;25.67;13.70;;;;;;;23.54;58.65;101299.69;5033716;28;20040;-77
2022/07/20 05:19:13;;;;;;;26.30;12.52;;;;;;;23.56;58.60;101318.66;5033737;28;20026;-77
2022/07/20 05:21:39;;;;;;;25.27;13.35;;;;;;;23.61;59.26;101310.47;5033481;28;20026;-76
2022/07/20 05:24:04;;;;;;;31.05;13.18;;;;;;;23.52;59.58;101331.25;5034126;28;20126;-78
2022/07/20 05:26:30;;;;;;;32.13;13.98;;;;;;;23.52;60.03;101312.84;5034124;28;20026;-76
2022/07/20 05:28:56;;;;;;;29.65;12.60;;;;;;;23.54;59.83;101327.16;5032389;28;20021;-76
2022/07/20 05:31:21;;;;;;;35.30;13.30;;;;;;;23.64;59.76;101320.94;5032981;28;20021;-76
2022/07/20 05:33:46;;;;;;;25.33;12.70;;;;;;;23.75;59.99;101317.28;5033057;28;20523;-78
2022/07/20 05:36:12;;;;;;;25.95;13.05;;;;;;;23.80;59.28;101335.72;5033710;28;20029;-77
2022/07/20 05:38:37;;;;;;;24.08;12.63;;;;;;;23.61;59.68;101344.28;5033845;28;20087;-75
2022/07/20 05:41:03;;;;;;;28.45;12.55;;;;;;;23.67;59.47;101342.41;5032642;28;20063;-74
2022/07/20 05:43:28;;;;;;;27.90;12.95;;;;;;;23.66;58.75;101354.50;5015423;28;20044;-78
2022/07/20 05:45:53;;;;;;;25.15;12.27;;;;;;;23.86;58.85;101346.53;5033508;28;20040;-76
2022/07/20 05:48:19;;;;;;;26.48;12.30;;;;;;;24.03;58.56;101342.84;5033812;28;20030;-76
2022/07/20 05:50:44;;;;;;;30.42;12.82;;;;;;;24.24;58.12;101352.09;5033304;28;20049;-77
2022/07/20 05:53:11;;;;;;;26.02;11.27;;;;;;;24.13;57.41;101356.69;5036425;28;20155;-75
2022/07/20 05:55:37;;;;;;;29.38;12.20;;;;;;;24.15;57.44;101364.69;5035751;28;20029;-76
2022/07/20 05:58:04;;;;;;;17.10;11.33;;;;;;;24.24;57.67;101372.19;5016340;28;20178;-77
2022/07/20 06:00:29;;;;;;;24.35;10.98;;;;;;;24.39;58.09;101365.19;5031623;28;20288;-77
2022/07/20 06:02:55;;;;;;;28.05;11.73;;;;;;;24.39;57.06;101373.44;5032832;28;20100;-75
2022/07/20 06:05:20;;;;;;;19.13;10.35;;;;;;;24.52;56.60;101382.09;5015370;28;20056;-76
2022/07/20 06:07:46;;;;;;;25.88;10.88;;;;;;;24.63;56.88;101390.44;5032783;28;20073;-75
2022/07/20 06:10:11;;;;;;;26.55;11.70;;;;;;;24.61;56.97;101411.91;5032986;28;20041;-75
2022/07/20 06:12:37;;;;;;;23.90;11.57;;;;;;;24.66;57.37;101421.03;5033787;28;20053;-76
2022/07/20 06:15:03;;;;;;;24.65;11.20;;;;;;;24.68;57.41;101418.84;5032420;28;20037;-76
2022/07/20 06:17:37;;;;;;;23.08;11.35;;;;;;;24.42;57.90;101425.19;5033273;28;20029;-76
2022/07/20 06:20:16;;;;;;;21.30;10.52;;;;;;;24.38;58.39;101449.63;5037785;28;20040;-77
2022/07/20 06:22:43;;;;;;;26.10;11.65;;;;;;;24.53;58.11;101459.97;5037969;28;20033;-77
2022/07/20 06:25:10;;;;;;;28.40;11.43;;;;;;;24.57;57.80;101469.38;5032516;28;20022;-76
2022/07/20 06:27:36;;;;;;;22.63;10.98;;;;;;;24.52;57.96;101494.09;5014544;28;20021;-76
2022/07/20 06:30:03;;;;;;;27.08;11.35;;;;;;;24.37;58.40;101504.91;5032147;28;20075;-77
2022/07/20 06:32:28;;;;;;;21.42;11.32;;;;;;;24.07;58.90;101507.03;5033115;28;20374;-76
2022/07/20 06:34:53;;;;;;;24.25;11.68;;;;;;;23.96;59.58;101513.50;5032360;28;20187;-75
2022/07/20 06:37:19;;;;;;;39.65;11.88;;;;;;;24.10;59.28;101505.69;5031529;28;20033;-75
2022/07/20 06:39:45;;;;;;;79.88;13.85;;;;;;;24.19;58.96;101509.66;5032531;28;20030;-77
2022/07/20 06:42:10;;;;;;;27.75;11.75;;;;;;;24.05;59.53;101522.13;5032602;28;20330;-75
2022/07/20 06:44:36;;;;;;;31.90;11.35;;;;;;;24.03;60.04;101529.81;5031734;28;20227;-76
2022/07/20 06:47:02;;;;;;;36.40;11.52;;;;;;;24.07;60.32;101528.22;5032508;28;20083;-76
2022/07/20 06:49:27;;;;;;;28.25;11.63;;;;;;;24.29;59.98;101533.72;5030456;28;20048;-76
2022/07/20 06:51:53;;;;;;;34.85;11.43;;;;;;;24.60;59.38;101542.34;5031335;28;20025;-74
2022/07/20 06:54:18;;;;;;;36.67;11.68;;;;;;;24.62;59.27;101529.13;5030752;28;20568;-76
2022/07/20 06:56:43;;;;;;;28.05;10.65;;;;;;;24.74;59.42;101538.06;5031089;28;20087;-77
2022/07/20 06:59:09;;;;;;;34.58;11.45;;;;;;;24.94;59.52;101548.47;5030309;28;20393;-77
2022/07/20 07:01:34;;;;;;;30.35;10.32;;;;;;;24.96;59.91;101555.38;5031281;28;20049;-78
2022/07/20 07:04:00;;;;;;;24.73;9.95;;;;;;;24.58;60.80;101558.28;5031886;28;20048;-76
2022/07/20 07:06:28;;;;;;;27.98;11.18;;;;;;;24.46;60.09;101561.16;5031382;28;20060;-77
2022/07/20 07:08:57;;;;;;;22.63;9.90;;;;;;;24.47;60.19;101571.91;5014349;28;20041;-77
2022/07/20 07:11:22;;;;;;;25.95;9.95;;;;;;;24.45;59.74;101573.25;5030854;28;20040;-77
2022/07/20 07:13:47;;;;;;;24.98;9.23;;;;;;;24.73;58.37;101563.94;5031699;28;20428;-77
2022/07/20 07:16:13;;;;;;;24.10;9.75;;;;;;;25.44;56.45;101555.53;5031391;28;20040;-77
2022/07/20 07:18:38;;;;;;;23.90;10.15;;;;;;;25.48;55.56;101564.09;5031481;28;20547;-76
2022/07/20 07:21:04;;;;;;;25.95;9.73;;;;;;;25.24;56.27;101558.94;5031709;28;20034;-77
2022/07/20 07:23:29;;;;;;;26.27;10.93;;;;;;;25.50;55.12;101556.38;5029897;28;20124;-78
2022/07/20 07:25:55;;;;;;;21.98;9.90;;;;;;;25.58;55.33;101547.63;5031112;28;20028;-77
2022/07/20 07:28:20;;;;;;;22.20;9.95;;;;;;;25.66;55.27;101571.09;5032152;28;20034;-80
2022/07/20 07:30:45;;;;;;;24.38;10.15;;;;;;;25.35;55.90;101565.38;5032391;28;20030;-76
2022/07/20 07:33:11;;;;;;;29.88;9.77;;;;;;;25.50;55.49;101567.41;5031150;28;20025;-76
2022/07/20 07:35:36;;;;;;;36.00;10.63;;;;;;;25.81;54.05;101568.47;5030647;28;20137;-77
2022/07/20 07:38:02;;;;;;;22.02;10.02;;;;;;;26.11;53.03;101583.53;5031198;28;20032;-76
2022/07/20 07:40:27;;;;;;;25.27;9.55;;;;;;;26.47;51.57;101576.25;5030139;28;20033;-77
2022/07/20 07:42:52;;;;;;;21.90;9.48;;;;;;;26.50;51.77;101571.00;5031909;28;20025;-75
2022/07/20 07:45:18;;;;;;;23.45;9.38;;;;;;;26.52;51.46;101569.94;5031137;28;20025;-78
2022/07/20 07:47:46;;;;;;;21.42;9.40;;;;;;;26.51;51.85;101574.59;5033083;28;20026;-78
2022/07/20 07:50:11;;;;;;;23.38;9.27;;;;;;;27.18;50.02;101564.56;5033409;28;20033;-77
2022/07/20 07:52:37;;;;;;;26.42;9.30;;;;;;;27.32;49.02;101573.13;5031951;28;20033;-77
2022/07/20 07:55:02;;;;;;;19.90;9.77;;;;;;;27.58;49.49;101585.81;5031079;28;20448;-77
2022/07/20 07:57:29;;;;;;;20.90;8.75;;;;;;;27.94;47.36;101593.25;5030670;28;20034;-77
2022/07/20 07:59:54;;;;;;;22.83;9.65;;;;;;;27.70;47.33;101582.75;5029737;28;20041;-77
2022/07/20 08:02:23;;;;;;;23.88;8.50;;;;;;;27.55;46.67;101597.44;5031388;28;20026;-78
2022/07/20 08:04:48;;;;;;;22.05;8.20;;;;;;;27.35;46.44;101598.25;5034955;28;20087;-79
2022/07/20 08:07:13;;;;;;;25.20;7.78;;;;;;;27.75;45.91;101596.59;5033021;28;20025;-78
2022/07/20 08:09:39;;;;;;;24.42;7.50;;;;;;;27.86;44.48;101585.50;5034761;28;20060;-77
2022/07/20 08:12:04;;;;;;;29.48;7.53;;;;;;;28.35;43.05;101593.09;5034150;28;20033;-76
2022/07/20 08:14:30;;;;;;;17.80;6.32;;;;;;;28.05;42.86;101583.81;5033124;28;20128;-79
2022/07/20 08:16:55;;;;;;;20.55;6.90;;;;;;;27.98;42.96;101573.03;5034547;28;20389;-78
2022/07/20 08:19:21;;;;;;;23.42;6.53;;;;;;;28.61;41.51;101564.19;5032905;28;20061;-78
2022/07/20 08:21:46;;;;;;;18.77;6.47;;;;;;;29.60;40.16;101560.41;5032791;28;20442;-76
2022/07/20 08:24:14;;;;;;;17.40;4.90;;;;;;;29.47;38.00;101564.69;5033973;28;20445;-76
2022/07/20 08:26:39;;;;;;;25.52;5.55;;;;;;;29.27;39.19;101570.41;5034648;28;20040;-76
2022/07/20 08:29:04;;;;;;;33.75;5.90;;;;;;;28.91;39.73;101556.78;5033252;28;20481;-75
2022/07/20 08:31:30;;;;;;;27.00;5.57;;;;;;;28.40;41.35;101551.53;5032883;28;20025;-77
2022/07/20 08:33:55;;;;;;;33.85;5.35;;;;;;;28.65;41.56;101559.75;5032772;28;20489;-78
2022/07/20 08:36:20;;;;;;;31.17;5.53;;;;;;;28.66;41.10;101561.41;5035236;28;20033;-76
2022/07/20 08:38:46;;;;;;;42.70;6.82;;;;;;;28.37;41.87;101552.94;5032959;28;20444;-77
2022/07/20 08:41:11;;;;;;;43.33;5.13;;;;;;;28.28;42.66;101560.19;5035502;28;20108;-78
2022/07/20 08:43:38;;;;;;;27.70;5.93;;;;;;;27.82;43.48;101557.59;5037222;28;20367;-76
2022/07/20 08:46:04;;;;;;;20.30;5.15;;;;;;;27.18;45.26;101564.56;5034816;28;20575;-78
2022/07/20 08:48:34;;;;;;;24.85;5.63;;;;;;;26.79;46.21;101562.28;5033389;28;20029;-75
2022/07/20 08:50:59;;;;;;;27.77;5.55;;;;;;;26.61;47.54;101571.06;5034730;28;20030;-78
2022/07/20 08:53:24;;;;;;;15.38;5.28;;;;;;;26.22;48.91;101574.19;5038486;28;20028;-76
2022/07/20 08:55:50;;;;;;;15.02;5.47;;;;;;;25.83;50.03;101572.59;5037917;28;20385;-76
2022/07/20 08:58:15;;;;;;;16.75;5.45;;;;;;;25.93;50.54;101599.44;5035866;28;20071;-77
2022/07/20 09:00:40;;;;;;;20.08;6.20;;;;;;;25.55;50.66;101571.03;5043124;28;20035;-78
2022/07/20 09:03:07;;;;;;;23.63;6.53;;;;;;;25.60;51.23;101535.25;5036327;28;20018;-76
2022/07/20 09:05:36;;;;;;;18.85;6.30;;;;;;;25.57;50.31;101512.91;5034591;28;20017;-76
2022/07/20 09:08:02;;;;;;;12.30;4.95;;;;;;;25.91;50.04;101461.00;5036890;28;20060;-76
2022/07/20 09:10:32;;;;;;;17.23;5.57;;;;;;;26.22;49.40;101428.78;5036406;28;20033;-76
2022/07/20 09:13:25;;;;;;;19.98;5.97;;;;;;;26.36;48.40;101420.84;5041920;28;20088;-76
2022/07/20 09:15:54;;;;;;;20.33;5.78;;;;;;;26.45;48.46;101426.63;5035899;28;20187;-77
2022/07/20 09:18:21;;;;;;;20.17;5.00;;;;;;;26.60;48.17;101445.19;5037960;28;20033;-77
2022/07/20 09:21:07;;;;;;;19.07;6.03;;;;;;;26.74;47.54;101581.59;5036697;28;20105;-76
2022/07/20 09:23:47;;;;;;;14.07;5.38;;;;;;;26.29;49.25;101629.97;5034739;28;20052;-77
2022/07/20 09:26:12;;;;;;;15.32;5.45;;;;;;;27.10;47.33;101587.19;5040385;28;20066;-76
2022/07/20 09:28:43;;;;;;;18.35;6.28;;;;;;;27.65;47.20;101604.91;5038832;28;20073;-77
2022/07/20 09:31:13;;;;;;;17.35;5.95;;;;;;;28.61;45.25;101611.28;5039989;28;20098;-78
2022/07/20 09:33:39;;;;;;;20.55;6.65;;;;;;;28.83;44.26;101604.50;5033900;28;20029;-77
2022/07/20 09:36:06;;;;;;;18.65;7.95;;;;;;;29.13;42.82;101603.50;5033406;28;20412;-77
2022/07/20 09:38:33;;;;;;;;;;;;;;;28.43;44.39;101611.88;5034206;28;20108;-77
2022/07/20 09:40:59;;;;;;;13.00;7.00;;;;;;;28.75;44.26;101613.41;5032140;28;19951;-76
2022/07/20 09:43:26;;;;;;;15.80;5.90;;;;;;;28.36;44.74;101617.75;5032737;28;20285;-78
2022/07/20 09:45:54;;;;;;;;;;;;;;;27.84;45.72;101621.75;5033845;28;20025;-77
2022/07/20 09:48:23;;;;;;;18.75;6.07;;;;;;;27.58;45.91;101634.75;5033368;28;19913;-77
2022/07/20 09:50:48;;;;;;;10.77;4.88;;;;;;;26.47;46.82;101632.28;5031476;28;20034;-78
2022/07/20 09:53:14;;;;;;;12.50;5.10;;;;;;;25.78;48.19;101658.06;5032404;28;20034;-77
2022/07/20 09:55:41;;;;;;;13.38;4.47;;;;;;;25.67;48.50;101672.81;5032490;28;20049;-78
2022/07/20 09:58:06;;;;;;;12.75;4.32;;;;;;;25.32;49.48;101665.09;5032321;28;20427;-78
2022/07/20 10:00:33;;;;;;;12.52;4.68;;;;;;;25.30;49.48;101653.50;5032504;28;20021;-77
2022/07/20 10:03:00;;;;;;;12.48;4.60;;;;;;;24.97;51.36;101680.13;5032717;28;20104;-78
2022/07/20 10:05:29;;;;;;;13.55;5.18;;;;;;;24.87;55.23;101664.31;5032032;28;20432;-77
2022/07/20 10:07:55;;;;;;;14.07;4.65;;;;;;;24.29;54.24;101652.00;5032039;28;20420;-76
2022/07/20 10:10:20;;;;;;;13.95;4.93;;;;;;;24.18;54.95;101645.53;5031822;28;20028;-75
2022/07/20 10:12:45;;;;;;;18.52;5.82;;;;;;;24.13;57.45;101694.94;5030716;28;20030;-77
2022/07/20 10:15:15;;;;;;;17.45;5.28;;;;;;;23.94;64.69;101693.56;5031687;28;20061;-76
2022/07/20 10:17:42;;;;;;;13.95;5.13;;;;;;;24.18;67.43;101692.28;5030589;28;20037;-76
2022/07/20 10:20:28;;;;;;;14.90;5.97;;;;;;;24.30;64.32;101686.66;5030552;28;20017;-78
2022/07/20 10:23:15;;;;;;;22.17;6.47;;;;;;;24.23;61.14;101686.84;5032761;28;20036;-78
2022/07/20 10:25:41;;;;;;;;;;;;;;;24.25;64.50;101679.19;5030733;28;20053;-76
2022/07/20 10:28:26;;;;;;;20.02;6.70;;;;;;;24.03;62.82;101703.03;5031538;28;19971;-76
2022/07/20 10:30:57;;;;;;;19.45;7.03;;;;;;;24.14;63.00;101704.84;5031536;28;20022;-75
2022/07/20 10:33:24;;;;;;;27.33;8.10;;;;;;;24.16;63.30;101697.19;5030403;28;20031;-78
2022/07/20 10:35:50;;;;;;;19.77;7.63;;;;;;;24.48;60.98;101711.16;5031650;28;20060;-79
2022/07/20 10:38:20;;;;;;;25.02;8.15;;;;;;;24.38;61.59;101727.50;5030603;28;20361;-75
2022/07/20 10:41:33;;;;;;;25.73;8.25;;;;;;;23.66;63.44;101698.84;5034462;28;20026;-76
2022/07/20 10:44:20;;;;;;;22.30;8.32;;;;;;;24.10;62.68;101726.53;4971617;28;20038;-76
2022/07/20 10:46:46;;;;;;;;;;;;;;;24.02;62.83;101706.88;5031992;28;20036;-76
2022/07/20 10:49:11;;;;;;;24.83;7.50;;;;;;;24.59;61.88;101692.88;5031545;28;19913;-78
2022/07/20 10:51:37;;;;;;;23.13;7.95;;;;;;;24.64;59.64;101711.38;5030239;28;20394;-76
2022/07/20 10:54:30;;;;;;;15.65;6.93;;;;;;;24.22;60.28;101745.69;5031298;28;20524;-77
2022/07/20 10:57:00;;;;;;;20.63;8.00;;;;;;;23.87;61.21;101737.69;5031018;28;20091;-77
2022/07/20 10:59:25;;;;;;;15.15;6.90;;;;;;;23.49;62.26;101713.66;5030303;28;20033;-76
2022/07/20 11:01:51;;;;;;;17.25;7.75;;;;;;;23.36;62.99;101712.03;5031334;28;20022;-77
2022/07/20 11:04:17;;;;;;;16.27;7.95;;;;;;;22.93;67.17;101651.06;5029668;28;20028;-77
2022/07/20 11:06:42;;;;;;;19.70;7.32;;;;;;;22.90;68.79;101593.91;5030830;28;20032;-76
2022/07/20 11:09:08;;;;;;;20.38;8.38;;;;;;;23.07;71.46;101598.66;5030961;28;20448;-76
2022/07/20 11:11:35;;;;;;;20.13;8.07;;;;;;;22.93;70.32;101626.38;5031058;28;20022;-75
2022/07/20 11:14:05;;;;;;;21.23;7.82;;;;;;;22.72;69.09;101611.44;5030896;28;20025;-76